createdAt,value
2018-02-05T00:00:52.112Z,76.90
2018-02-05T00:02:53.083Z,76.13
2018-02-05T00:04:54.074Z,82.10
2018-02-05T00:07:09.327Z,63.37
2018-02-05T00:09:10.301Z,96.80
2018-02-05T00:11:11.288Z,76.97
2018-02-05T00:13:26.706Z,67.60
2018-02-05T00:15:27.744Z,80.70
2018-02-05T00:17:28.778Z,62.67
2018-02-05T00:19:29.755Z,70.53
2018-02-05T00:21:37.162Z,75.07
2018-02-05T00:24:01.064Z,79.70
2018-02-05T00:26:02.076Z,87.43
2018-02-05T00:28:03.083Z,72.67
2018-02-05T00:30:08.578Z,72.97
2018-02-05T00:32:10.315Z,75.83
2018-02-05T00:34:11.366Z,90.60
2018-02-05T00:36:12.331Z,74.97
2018-02-05T00:38:13.298Z,66.67
2018-02-05T00:40:14.332Z,77.30
2018-02-05T00:42:15.316Z,75.47
2018-02-05T00:44:16.303Z,70.33
2018-02-05T00:46:17.276Z,61.17
2018-02-05T00:48:18.277Z,61.20
2018-02-05T00:52:31.680Z,64.43
2018-02-05T00:54:32.679Z,70.73
2018-02-05T00:56:33.633Z,68.97
2018-02-05T00:58:34.687Z,62.20
2018-02-05T01:00:35.671Z,56.60
2018-02-05T01:02:36.691Z,59.00
2018-02-05T01:07:05.276Z,48.00
2018-02-05T01:09:06.261Z,71.00
2018-02-05T01:11:07.257Z,61.20
2018-02-05T01:13:08.227Z,54.47
2018-02-05T01:15:09.787Z,64.97
2018-02-05T01:17:21.829Z,55.37
2018-02-05T01:19:22.821Z,63.23
2018-02-05T01:21:40.442Z,51.63
2018-02-05T01:24:05.592Z,68.30
2018-02-05T01:26:06.863Z,60.53
2018-02-05T01:28:07.822Z,54.40
2018-02-05T01:30:08.791Z,58.87
2018-02-05T01:32:09.763Z,55.10
2018-02-05T01:34:10.794Z,53.27
2018-02-05T01:36:12.522Z,53.67
2018-02-05T01:38:13.493Z,49.17
2018-02-05T01:40:14.469Z,53.63
2018-02-05T01:42:15.484Z,63.97
2018-02-05T01:44:16.487Z,59.30
2018-02-05T01:46:19.109Z,50.60
2018-02-05T01:48:21.600Z,56.63
2018-02-05T01:50:22.751Z,52.00
2018-02-05T01:52:23.736Z,55.63
2018-02-05T01:54:25.968Z,51.57
2018-02-05T01:56:26.966Z,59.30
2018-02-05T01:58:28.192Z,62.80
2018-02-05T02:00:29.172Z,60.20
2018-02-05T02:02:30.151Z,47.70
2018-02-05T02:04:31.236Z,54.70
2018-02-05T02:06:32.434Z,63.67
2018-02-05T02:08:33.424Z,52.80
2018-02-05T02:10:35.135Z,64.70
2018-02-05T02:12:36.335Z,44.97
2018-02-05T02:14:39.507Z,50.47
2018-02-05T02:16:40.634Z,56.90
2018-02-05T02:18:41.599Z,48.60
2018-02-05T02:20:42.552Z,53.67
2018-02-05T02:22:43.524Z,52.70
2018-02-05T02:24:45.256Z,55.57
2018-02-05T02:26:46.215Z,47.47
2018-02-05T02:28:49.333Z,42.17
2018-02-05T02:30:52.814Z,44.13
2018-02-05T02:32:53.902Z,53.63
2018-02-05T02:34:54.919Z,64.73
2018-02-05T02:36:55.865Z,54.47
2018-02-05T02:38:57.726Z,47.67
2018-02-05T02:40:58.745Z,44.27
2018-02-05T02:42:59.768Z,50.17
2018-02-05T02:45:08.762Z,48.40
2018-02-05T02:47:18.426Z,51.57
2018-02-05T02:49:19.446Z,41.77
2018-02-05T02:51:20.447Z,51.60
2018-02-05T02:53:21.443Z,44.97
2018-02-05T02:55:26.735Z,49.60
2018-02-05T02:57:27.783Z,48.87
2018-02-05T02:59:28.762Z,47.53
2018-02-05T03:01:29.981Z,50.93
2018-02-05T03:03:31.048Z,49.87
2018-02-05T03:05:32.244Z,51.80
2018-02-05T03:07:33.980Z,51.70
2018-02-05T03:09:35.112Z,50.43
2018-02-05T03:11:36.415Z,49.03
2018-02-05T03:13:37.371Z,52.70
2018-02-05T03:15:38.350Z,54.53
2018-02-05T03:17:39.327Z,43.97
2018-02-05T03:19:40.398Z,41.17
2018-02-05T03:21:41.377Z,46.20
2018-02-05T03:23:43.857Z,49.30
2018-02-05T03:25:44.867Z,53.30
2018-02-05T03:27:46.231Z,42.90
2018-02-05T03:29:47.940Z,45.83
2018-02-05T03:31:49.036Z,54.60
2018-02-05T03:33:50.497Z,41.47
2018-02-05T03:38:36.868Z,44.57
2018-02-05T03:40:38.014Z,41.83
2018-02-05T03:42:39.151Z,45.63
2018-02-05T03:44:40.366Z,51.10
2018-02-05T03:46:42.389Z,45.63
2018-02-05T03:48:43.493Z,57.70
2018-02-05T03:50:44.610Z,46.13
2018-02-05T03:53:06.990Z,47.65
2018-02-05T03:55:08.115Z,44.50
2018-02-05T04:02:17.023Z,49.80
2018-02-05T04:04:17.978Z,42.63
2018-02-05T04:06:18.962Z,50.20
2018-02-05T04:08:19.915Z,55.93
2018-02-05T04:10:20.888Z,47.50
2018-02-05T04:12:21.939Z,54.50
2018-02-05T04:14:22.904Z,46.90
2018-02-05T04:16:23.880Z,48.77
2018-02-05T04:18:25.642Z,46.30
2018-02-05T04:20:26.680Z,50.13
2018-02-05T04:22:27.694Z,65.90
2018-02-05T04:24:28.655Z,48.03
2018-02-05T04:26:29.624Z,55.87
2018-02-05T04:28:30.656Z,42.63
2018-02-05T04:30:31.691Z,58.57
2018-02-05T04:32:32.639Z,55.63
2018-02-05T04:34:33.642Z,59.83
2018-02-05T04:36:50.537Z,42.80
2018-02-05T04:38:57.915Z,43.40
2018-02-05T04:40:58.875Z,51.00
2018-02-05T04:43:18.994Z,44.63
2018-02-05T04:47:42.885Z,45.70
2018-02-05T04:49:43.947Z,54.60
2018-02-05T04:54:10.115Z,41.50
2018-02-05T04:56:11.075Z,43.87
2018-02-05T04:58:12.048Z,52.67
2018-02-05T05:00:13.162Z,50.93
2018-02-05T05:02:14.162Z,49.80
2018-02-05T05:04:15.135Z,43.03
2018-02-05T05:06:16.196Z,39.27
2018-02-05T05:08:17.188Z,45.90
2018-02-05T05:10:18.284Z,51.37
2018-02-05T05:12:19.244Z,40.07
2018-02-05T05:16:51.252Z,45.93
2018-02-05T05:18:52.215Z,42.97
2018-02-05T05:20:53.216Z,44.73
2018-02-05T05:22:54.167Z,41.57
2018-02-05T05:24:55.123Z,41.30
2018-02-05T05:26:56.067Z,39.93
2018-02-05T05:28:57.047Z,37.50
2018-02-05T05:33:34.972Z,37.40
2018-02-05T05:35:36.677Z,38.97
2018-02-05T05:37:37.640Z,35.70
2018-02-05T05:39:38.604Z,37.67
2018-02-05T05:41:39.547Z,40.07
2018-02-05T05:46:08.801Z,39.47
2018-02-05T05:51:01.734Z,44.83
2018-02-05T05:53:02.732Z,42.53
2018-02-05T05:55:03.897Z,42.20
2018-02-05T05:59:59.095Z,48.50
2018-02-05T06:04:26.872Z,38.83
2018-02-05T06:06:28.053Z,37.23
2018-02-05T06:08:29.031Z,42.93
2018-02-05T06:10:30.214Z,40.00
2018-02-05T06:12:31.195Z,42.77
2018-02-05T06:14:32.892Z,37.90
2018-02-05T06:16:33.944Z,37.60
2018-02-05T06:18:34.991Z,44.80
2018-02-05T06:20:36.131Z,47.13
2018-02-05T06:22:37.110Z,44.17
2018-02-05T06:24:58.371Z,44.83
2018-02-05T06:26:59.443Z,43.57
2018-02-05T06:29:00.513Z,50.70
2018-02-05T06:31:01.510Z,45.50
2018-02-05T06:33:28.407Z,54.50
2018-02-05T06:35:29.568Z,42.73
2018-02-05T06:37:30.608Z,53.70
2018-02-05T06:39:31.650Z,51.43
2018-02-05T06:44:00.301Z,73.13
2018-02-05T06:46:01.471Z,52.60
2018-02-05T06:48:28.519Z,52.90
2018-02-05T06:50:41.667Z,52.27
2018-02-05T06:53:07.108Z,44.83
2018-02-05T06:55:20.681Z,52.13
2018-02-05T06:57:21.724Z,67.13
2018-02-05T06:59:28.975Z,202.00
2018-02-05T07:01:30.736Z,58.10
2018-02-05T07:03:31.900Z,56.00
2018-02-05T07:05:36.827Z,53.03
2018-02-05T07:07:40.886Z,48.10
2018-02-05T07:09:42.008Z,50.60
2018-02-05T07:12:06.741Z,48.80
2018-02-05T07:14:07.758Z,45.73
2018-02-05T07:16:09.451Z,50.23
2018-02-05T07:18:10.595Z,51.27
2018-02-05T07:20:11.579Z,52.77
2018-02-05T07:22:25.192Z,60.40
2018-02-05T07:24:26.279Z,59.30
2018-02-05T07:26:27.263Z,54.60
2018-02-05T07:28:28.323Z,53.03
2018-02-05T07:32:46.383Z,41.20
2018-02-05T07:37:03.408Z,39.83
2018-02-05T07:39:04.416Z,36.00
2018-02-05T07:41:05.409Z,47.83
2018-02-05T07:43:07.287Z,39.00
2018-02-05T07:45:09.009Z,38.83
2018-02-05T07:47:10.007Z,32.43
2018-02-05T07:49:11.143Z,36.73
2018-02-05T07:51:12.116Z,39.60
2018-02-05T07:53:13.170Z,39.13
2018-02-05T07:55:14.152Z,37.70
2018-02-05T07:59:28.342Z,36.37
2018-02-05T08:01:29.325Z,41.50
2018-02-05T08:03:31.047Z,36.27
2018-02-05T08:05:32.249Z,40.43
2018-02-05T08:07:38.026Z,38.20
2018-02-05T08:09:39.169Z,39.00
2018-02-05T08:11:40.171Z,38.17
2018-02-05T08:13:43.196Z,34.97
2018-02-05T08:15:44.225Z,36.00
2018-02-05T08:17:45.260Z,41.57
2018-02-05T08:19:48.635Z,39.40
2018-02-05T08:21:49.825Z,40.20
2018-02-05T08:25:58.894Z,38.03
2018-02-05T08:27:59.892Z,45.33
2018-02-05T08:30:00.870Z,38.10
2018-02-05T08:34:30.783Z,34.57
2018-02-05T08:36:31.783Z,40.23
2018-02-05T08:38:32.767Z,34.03
2018-02-05T08:40:33.736Z,32.73
2018-02-05T08:42:34.693Z,40.40
2018-02-05T08:44:35.626Z,34.27
2018-02-05T08:46:36.595Z,39.50
2018-02-05T08:48:38.471Z,39.73
2018-02-05T08:50:40.172Z,34.63
2018-02-05T08:52:41.133Z,36.93
2018-02-05T08:54:42.287Z,29.10
2018-02-05T08:56:43.255Z,34.77
2018-02-05T08:58:47.723Z,41.07
2018-02-05T09:00:48.798Z,32.87
2018-02-05T09:02:49.836Z,29.97
2018-02-05T09:09:58.832Z,34.90
2018-02-05T09:14:06.066Z,30.47
2018-02-05T09:16:07.019Z,29.10
2018-02-05T09:18:07.967Z,32.13
2018-02-05T09:20:10.287Z,34.33
2018-02-05T09:22:12.700Z,35.33
2018-02-05T09:24:13.703Z,31.30
2018-02-05T09:26:14.772Z,38.23
2018-02-05T09:28:17.945Z,31.70
2018-02-05T09:30:19.100Z,32.40
2018-02-05T09:32:20.825Z,31.47
2018-02-05T09:34:21.788Z,33.20
2018-02-05T09:36:24.133Z,35.10
2018-02-05T09:38:25.880Z,33.20
2018-02-05T09:40:26.875Z,39.33
2018-02-05T09:42:30.490Z,43.47
2018-02-05T09:44:49.219Z,35.97
2018-02-05T09:46:55.422Z,36.37
2018-02-05T09:48:56.829Z,39.33
2018-02-05T09:50:58.591Z,37.40
2018-02-05T09:53:04.271Z,30.57
2018-02-05T09:55:05.303Z,40.07
2018-02-05T09:57:06.251Z,33.97
2018-02-05T10:01:44.420Z,32.03
2018-02-05T10:03:45.400Z,35.10
2018-02-05T10:05:46.427Z,36.67
2018-02-05T10:07:53.440Z,34.00
2018-02-05T10:09:55.352Z,44.83
2018-02-05T10:11:56.311Z,32.00
2018-02-05T10:13:57.259Z,33.97
2018-02-05T10:15:58.414Z,39.73
2018-02-05T10:17:59.371Z,35.60
2018-02-05T10:20:00.330Z,34.73
2018-02-05T10:22:01.282Z,37.40
2018-02-05T10:24:06.237Z,38.40
2018-02-05T10:26:07.377Z,37.13
2018-02-05T10:28:09.107Z,31.17
2018-02-05T10:30:10.084Z,43.03
2018-02-05T10:32:15.180Z,42.43
2018-02-05T11:51:34.494Z,35.43
2018-02-05T11:55:59.795Z,39.53
2018-02-05T11:58:00.777Z,34.07
2018-02-05T12:00:01.736Z,32.80
2018-02-05T12:02:03.448Z,33.23
2018-02-05T12:04:04.438Z,28.50
2018-02-05T12:06:05.634Z,37.53
2018-02-05T12:08:06.596Z,33.67
2018-02-05T12:12:37.662Z,29.80
2018-02-05T12:14:38.631Z,34.17
2018-02-05T12:16:39.607Z,36.60
2018-02-05T12:18:41.308Z,29.57
2018-02-05T12:20:47.068Z,34.67
2018-02-05T12:22:50.375Z,32.33
2018-02-05T12:24:51.332Z,33.03
2018-02-05T12:26:52.304Z,30.93
2018-02-05T12:28:53.516Z,30.87
2018-02-05T12:31:02.094Z,29.53
2018-02-05T12:33:03.106Z,29.03
2018-02-05T12:35:07.401Z,32.77
2018-02-05T12:39:39.428Z,29.00
2018-02-05T12:41:40.383Z,34.23
2018-02-05T12:43:41.357Z,38.60
2018-02-05T12:45:43.082Z,42.90
2018-02-05T12:47:44.075Z,41.60
2018-02-05T12:49:45.779Z,40.80
2018-02-05T12:51:46.727Z,40.93
2018-02-05T12:53:47.676Z,40.53
2018-02-05T12:55:48.871Z,42.40
2018-02-05T12:58:07.545Z,41.93
2018-02-05T13:00:14.722Z,44.33
2018-02-05T13:02:16.427Z,44.53
2018-02-05T13:04:37.335Z,44.27
2018-02-05T13:06:41.138Z,45.07
2018-02-05T13:08:42.127Z,47.37
2018-02-05T13:10:43.212Z,47.60
2018-02-05T13:12:54.950Z,54.40
2018-02-05T13:14:55.996Z,43.23
2018-02-05T13:16:57.016Z,54.60
2018-02-05T13:21:26.897Z,43.33
2018-02-05T13:23:55.368Z,40.77
2018-02-05T13:25:56.356Z,46.67
2018-02-05T13:27:57.603Z,41.13
2018-02-05T13:29:58.787Z,39.80
2018-02-05T13:34:27.938Z,50.40
2018-02-05T13:36:28.888Z,40.93
2018-02-05T13:38:29.852Z,46.27
2018-02-05T13:40:30.855Z,43.87
2018-02-05T13:42:32.572Z,41.60
2018-02-05T13:44:33.693Z,44.80
2018-02-05T13:46:54.649Z,42.50
2018-02-05T13:48:55.612Z,46.67
2018-02-05T13:55:52.397Z,43.93
2018-02-05T13:57:53.396Z,41.53
2018-02-05T13:59:55.331Z,49.93
2018-02-05T14:01:56.313Z,49.43
2018-02-05T14:03:58.315Z,57.27
2018-02-05T14:05:59.283Z,43.90
2018-02-05T14:08:00.494Z,45.10
2018-02-05T14:10:01.684Z,50.70
2018-02-05T14:12:02.988Z,41.37
2018-02-05T14:14:04.031Z,40.17
2018-02-05T14:16:05.728Z,38.80
2018-02-05T14:18:06.853Z,45.43
2018-02-05T14:20:08.305Z,37.53
2018-02-05T14:22:09.302Z,40.70
2018-02-05T14:24:10.271Z,34.60
2018-02-05T14:26:11.245Z,35.20
2018-02-05T14:28:12.898Z,38.70
2018-02-05T14:30:13.925Z,30.20
2018-02-05T14:32:14.872Z,31.17
2018-02-05T14:34:16.524Z,35.67
2018-02-05T14:36:17.533Z,29.00
2018-02-05T14:38:18.955Z,28.07
2018-02-05T14:40:22.946Z,28.20
2018-02-05T14:42:23.964Z,26.40
2018-02-05T14:44:25.056Z,27.27
2018-02-05T14:46:27.721Z,26.40
2018-02-05T14:48:29.014Z,35.37
2018-02-05T14:50:30.003Z,28.50
2018-02-05T14:54:44.376Z,26.53
2018-02-05T14:56:49.603Z,20.50
2018-02-05T14:58:53.664Z,27.40
2018-02-05T15:00:58.304Z,23.97
2018-02-05T15:02:59.385Z,22.30
2018-02-05T15:05:01.095Z,28.70
2018-02-05T15:07:02.153Z,27.67
2018-02-05T15:09:03.219Z,25.33
2018-02-05T15:11:04.199Z,31.57
2018-02-05T15:13:05.165Z,29.40
2018-02-05T15:15:06.347Z,25.13
2018-02-05T15:17:07.323Z,22.97
2018-02-05T15:19:09.206Z,31.73
2018-02-05T15:21:10.207Z,24.60
2018-02-05T15:23:13.440Z,33.97
2018-02-05T15:25:16.043Z,27.50
2018-02-05T15:27:17.072Z,31.83
2018-02-05T15:29:19.995Z,37.20
2018-02-05T15:31:21.008Z,31.40
2018-02-05T15:33:22.345Z,33.37
2018-02-05T15:35:24.108Z,29.93
2018-02-05T15:37:25.357Z,31.53
2018-02-05T15:39:26.328Z,30.37
2018-02-05T15:41:27.363Z,34.53
2018-02-05T15:43:28.266Z,33.67
2018-02-05T15:45:29.223Z,27.63
2018-02-05T15:47:30.177Z,26.00
2018-02-05T15:49:31.398Z,24.57
2018-02-05T15:51:32.406Z,27.60
2018-02-05T15:53:34.001Z,29.67
2018-02-05T15:55:35.053Z,30.90
2018-02-05T15:57:35.995Z,32.73
2018-02-05T15:59:38.506Z,35.83
2018-02-05T16:01:39.783Z,28.40
2018-02-05T16:03:40.746Z,35.07
2018-02-05T16:05:41.848Z,30.60
2018-02-05T16:07:42.770Z,27.57
2018-02-05T16:09:43.750Z,25.00
2018-02-05T16:11:44.864Z,29.70
2018-02-05T16:13:45.790Z,31.23
2018-02-05T16:15:47.491Z,25.63
2018-02-05T16:17:48.628Z,46.30
2018-02-05T16:19:49.584Z,42.63
2018-02-05T16:21:50.503Z,40.22
2018-02-05T16:23:52.206Z,36.43
2018-02-05T16:25:53.189Z,32.80
2018-02-05T16:27:54.151Z,25.20
2018-02-05T16:29:55.121Z,35.43
2018-02-05T16:31:56.070Z,24.73
2018-02-05T16:33:57.079Z,25.60
2018-02-05T16:35:58.010Z,20.80
2018-02-05T16:40:27.118Z,19.20
2018-02-05T16:42:28.059Z,21.37
2018-02-05T16:44:28.986Z,26.77
2018-02-05T16:46:29.909Z,22.10
2018-02-05T16:48:31.570Z,25.63
2018-02-05T16:50:39.331Z,23.83
2018-02-05T16:52:40.295Z,20.63
2018-02-05T16:55:10.213Z,22.87
2018-02-05T16:57:11.378Z,19.73
2018-02-05T16:59:12.359Z,21.33
2018-02-05T17:01:13.354Z,22.13
2018-02-05T17:03:14.300Z,17.27
2018-02-05T17:07:39.736Z,20.90
2018-02-05T17:09:40.666Z,18.27
2018-02-05T17:12:09.150Z,18.83
2018-02-05T17:16:37.750Z,18.08
2018-02-05T17:21:10.677Z,15.57
2018-02-05T17:23:11.619Z,16.07
2018-02-05T17:25:19.234Z,21.10
2018-02-05T17:27:20.200Z,21.40
2018-02-05T17:29:29.847Z,21.13
2018-02-05T17:33:58.730Z,16.67
2018-02-05T17:35:59.723Z,15.97
2018-02-05T17:38:00.688Z,17.73
2018-02-05T17:40:10.158Z,18.23
2018-02-05T17:42:11.879Z,14.10
2018-02-05T17:44:38.978Z,17.40
2018-02-05T17:49:08.403Z,17.47
2018-02-05T17:51:09.430Z,22.27
2018-02-05T17:53:10.607Z,29.73
2018-02-05T17:55:11.603Z,20.00
2018-02-05T17:57:38.942Z,15.50
2018-02-05T17:59:39.892Z,20.77
2018-02-05T18:01:40.871Z,20.60
2018-02-05T18:06:08.345Z,17.33
2018-02-05T18:08:09.316Z,16.30
2018-02-05T18:15:06.593Z,19.33
2018-02-05T18:17:07.548Z,17.23
2018-02-05T18:19:08.528Z,19.20
2018-02-05T18:23:37.039Z,26.37
2018-02-05T18:25:39.027Z,19.85
2018-02-05T18:27:40.014Z,16.73
2018-02-05T18:29:41.024Z,16.63
2018-02-05T18:31:42.023Z,19.13
2018-02-05T18:33:43.040Z,22.13
2018-02-05T18:36:08.913Z,29.80
2018-02-05T18:38:09.957Z,26.33
2018-02-05T18:42:38.355Z,25.93
2018-02-05T18:44:39.347Z,22.00
2018-02-05T18:46:40.304Z,21.60
2018-02-05T18:48:41.290Z,20.30
2018-02-05T18:50:42.275Z,20.43
2018-02-05T18:52:43.326Z,23.33
2018-02-05T18:54:44.258Z,19.40
2018-02-05T18:57:09.987Z,21.73
2018-02-05T18:59:10.980Z,28.30
2018-02-05T19:01:12.729Z,26.70
2018-02-05T19:03:14.155Z,22.90
2018-02-05T19:05:39.301Z,22.83
2018-02-05T19:07:40.312Z,22.90
2018-02-05T19:09:41.263Z,22.20
2018-02-05T19:11:42.219Z,27.80
2018-02-05T19:13:45.202Z,29.73
2018-02-05T19:15:46.165Z,28.07
2018-02-05T19:18:09.284Z,26.00
2018-02-05T19:25:05.972Z,25.33
2018-02-05T19:29:35.848Z,26.27
2018-02-05T19:31:40.268Z,30.23
2018-02-05T19:36:39.220Z,31.87
2018-02-05T19:38:46.854Z,41.97
2018-02-05T19:40:58.725Z,36.23
2018-02-05T19:42:59.686Z,35.40
2018-02-05T19:45:00.774Z,32.07
2018-02-05T19:47:02.506Z,30.77
2018-02-05T19:49:13.483Z,28.80
2018-02-05T19:51:14.488Z,30.63
2018-02-05T19:53:15.567Z,34.67
2018-02-05T19:55:16.524Z,39.28
2018-02-05T19:57:17.552Z,36.80
2018-02-05T19:59:18.555Z,29.57
2018-02-05T20:03:47.816Z,34.57
2018-02-05T20:05:48.922Z,28.07
2018-02-05T20:07:49.948Z,29.13
2018-02-05T20:14:46.714Z,27.10
2018-02-05T20:16:48.829Z,26.53
2018-02-05T20:18:49.837Z,30.15
2018-02-05T20:20:50.796Z,30.13
2018-02-05T20:25:19.459Z,35.07
2018-02-05T20:27:20.429Z,32.40
2018-02-05T20:29:22.187Z,50.57
2018-02-05T20:31:24.099Z,51.03
2018-02-05T20:33:25.240Z,32.33
2018-02-05T20:35:26.231Z,37.25
2018-02-05T20:37:27.302Z,43.83
2018-02-05T20:39:28.251Z,39.57
2018-02-05T20:41:49.148Z,40.50
2018-02-05T20:48:59.902Z,42.97
2018-02-05T20:51:01.479Z,73.47
2018-02-05T20:53:02.791Z,43.63
2018-02-05T20:55:04.827Z,43.05
2018-02-05T20:57:06.931Z,36.53
2018-02-05T21:04:04.343Z,46.27
2018-02-05T21:06:05.397Z,32.03
2018-02-05T21:08:06.444Z,34.40
2018-02-05T21:10:07.744Z,31.70
2018-02-05T21:12:08.760Z,24.37
2018-02-05T21:14:11.007Z,32.03
2018-02-05T21:16:12.435Z,27.50
2018-02-05T21:18:14.300Z,21.10
2018-02-05T21:20:15.263Z,29.23
2018-02-05T21:22:16.428Z,24.13
2018-02-05T21:24:17.373Z,26.98
2018-02-05T21:26:18.390Z,31.40
2018-02-05T21:28:19.689Z,32.35
2018-02-05T21:30:20.695Z,26.17
2018-02-05T21:32:21.652Z,23.38
2018-02-05T21:34:22.612Z,22.17
2018-02-05T21:36:23.581Z,24.30
2018-02-05T21:38:24.577Z,25.85
2018-02-05T21:40:25.744Z,23.10
2018-02-05T21:42:26.810Z,22.73
2018-02-05T21:46:55.593Z,19.97
2018-02-05T21:48:56.599Z,21.67
2018-02-05T21:50:58.958Z,20.52
2018-02-05T21:53:00.209Z,20.20
2018-02-05T21:55:01.697Z,23.73
2018-02-05T21:57:03.312Z,18.92
2018-02-05T22:01:51.500Z,22.90
2018-02-05T22:04:18.277Z,28.55
2018-02-05T22:06:19.273Z,23.40
2018-02-05T22:08:20.413Z,23.47
2018-02-05T22:12:50.610Z,20.95
2018-02-05T22:14:51.586Z,19.12
2018-02-05T22:16:52.676Z,22.23
2018-02-05T22:19:03.892Z,16.87
2018-02-05T22:21:04.873Z,23.62
2018-02-05T22:23:05.911Z,23.42
2018-02-05T22:25:06.871Z,24.03
2018-02-05T22:27:07.841Z,18.80
2018-02-05T22:29:09.003Z,17.33
2018-02-05T22:31:10.081Z,16.25
2018-02-05T22:33:11.055Z,21.15
2018-02-05T22:35:38.473Z,21.25
2018-02-05T22:40:07.209Z,21.65
2018-02-05T22:42:08.183Z,19.87
2018-02-05T22:44:09.160Z,20.30
2018-02-05T22:48:37.512Z,18.80
2018-02-05T22:50:38.527Z,18.15
2018-02-05T22:52:39.635Z,17.23
2018-02-05T22:57:08.010Z,19.05
2018-02-05T23:01:36.600Z,16.40
2018-02-05T23:03:37.680Z,20.00
2018-02-05T23:05:38.629Z,21.02
2018-02-05T23:07:39.722Z,19.10
2018-02-05T23:09:40.705Z,22.40
2018-02-05T23:11:41.695Z,23.93
2018-02-05T23:13:42.668Z,24.00
2018-02-05T23:15:43.621Z,25.83
2018-02-05T23:22:49.200Z,17.90
2018-02-05T23:25:08.443Z,19.58
2018-02-05T23:27:09.431Z,15.48
2018-02-05T23:29:10.411Z,34.97
2018-02-05T23:33:39.448Z,20.80
2018-02-05T23:38:17.952Z,29.15
2018-02-05T23:40:18.936Z,22.27
2018-02-05T23:42:19.983Z,25.27
2018-02-05T23:44:21.044Z,15.10
2018-02-05T23:53:55.375Z,13.65
